aviador You're here:

PATC Decoded Metar

TIN CITY in AK, USA
Report Time2018-05-25 19:55:00
UTC Time2018-05-25 20:48:40
Flight Rules ifr IFR
Wind360° at 18 kt
W.Decomp.*RWY 34: 17.9 kt HW 2.2 kt RCW
Visibility6437 m
Phenomena:Light Shower Snow
Clouds:Overcast 007 Hf
Ceiling700 ft
Temp-1°C (ISA -15)
Dew Point-1°C (100% RH)
AAT-9.6°C
QNH1010 hPa
Density Alt-1,440 ft
Elevation272 ft
Report Wrong Elevation
Raw Report
PATC 251955Z AUTO 36018KT 4SM -SHSN OVC007 M01/M01 A2982=

Extra information for PATC:More info

Metar Taf Metar & Taf Last 4 Metars F.Rules Stats Wind Profile Meteogram Temp Stats Airport Information Weather charts Add Link Nearby VenuesMetar ALERT Operation Metar Decoded Social comments

AIRNAV info for PATC